Time;durP1;ratioP1;P1;durP2;ratioP2;P2;SDS_P1;SDS_P2;PMS_P1;PMS_P2;Temp;Humidity;BMP_temperature;BMP_pressure;BME280_temperature;BME280_humidity;BME280_pressure;Samples;Min_cycle;Max_cycle;Signal;HPM_P1;HPM_P2
2022/07/22 00:01:43;;;;;;;9.20;4.30;;;17.10;99.90;;;;;;5115035;28;20184;-75
2022/07/22 00:04:10;;;;;;;10.40;3.67;;;17.10;99.90;;;;;;5115099;28;20268;-75
2022/07/22 00:06:36;;;;;;;6.10;3.70;;;17.10;99.90;;;;;;5115197;28;20414;-75
2022/07/22 00:09:02;;;;;;;6.90;3.90;;;17.00;99.90;;;;;;5115630;28;20626;-75
2022/07/22 00:11:28;;;;;;;6.40;3.70;;;17.00;99.90;;;;;;5114845;28;20195;-75
2022/07/22 00:13:54;;;;;;;9.90;4.00;;;17.00;99.90;;;;;;5114564;28;20413;-74
2022/07/22 00:16:19;;;;;;;7.97;3.70;;;17.00;99.90;;;;;;5114849;28;21098;-75
2022/07/22 00:18:45;;;;;;;5.73;3.20;;;17.00;99.90;;;;;;5114838;28;20262;-75
2022/07/22 00:21:11;;;;;;;7.00;3.40;;;17.00;99.90;;;;;;5114684;28;20176;-75
2022/07/22 00:23:36;;;;;;;7.27;3.43;;;17.00;99.90;;;;;;5105592;28;20587;-75
2022/07/22 00:26:02;;;;;;;8.60;3.63;;;17.00;99.90;;;;;;5113751;28;20183;-75
2022/07/22 00:28:28;;;;;;;7.70;3.93;;;17.00;99.90;;;;;;5114653;28;20172;-75
2022/07/22 00:30:53;;;;;;;7.10;4.13;;;17.10;99.90;;;;;;5114341;28;20179;-74
2022/07/22 00:33:19;;;;;;;5.63;3.60;;;17.00;99.90;;;;;;5114426;28;20179;-75
2022/07/22 00:35:45;;;;;;;6.40;3.87;;;17.00;99.90;;;;;;5114858;28;20175;-75
2022/07/22 00:38:10;;;;;;;5.40;3.20;;;17.00;99.90;;;;;;5114730;28;20179;-75
2022/07/22 00:40:36;;;;;;;9.70;3.43;;;16.90;99.90;;;;;;5114631;28;20176;-75
2022/07/22 00:43:02;;;;;;;7.97;4.17;;;16.90;99.90;;;;;;5114469;28;20569;-75
2022/07/22 00:45:27;;;;;;;7.90;4.37;;;16.90;99.90;;;;;;5114338;28;20179;-75
2022/07/22 00:47:53;;;;;;;7.63;3.33;;;16.90;99.90;;;;;;5114239;28;20861;-75
2022/07/22 00:50:19;;;;;;;8.73;3.93;;;16.80;99.90;;;;;;5114305;28;20206;-75
2022/07/22 00:52:45;;;;;;;5.23;3.53;;;16.80;99.90;;;;;;5114293;28;20203;-75
2022/07/22 00:55:12;;;;;;;6.23;3.70;;;16.80;99.90;;;;;;5114335;28;20525;-75
2022/07/22 00:57:38;;;;;;;7.03;3.90;;;16.80;99.90;;;;;;5114337;28;20887;-75
2022/07/22 01:00:07;;;;;;;8.10;4.40;;;16.70;99.90;;;;;;5113983;28;20418;-75
2022/07/22 01:02:33;;;;;;;7.77;4.40;;;16.70;99.90;;;;;;5105549;28;20436;-75
2022/07/22 01:04:59;;;;;;;9.40;3.30;;;16.70;99.90;;;;;;5113937;28;20417;-74
2022/07/22 01:07:24;;;;;;;15.33;4.40;;;16.70;99.90;;;;;;5114236;28;20701;-75
2022/07/22 01:09:50;;;;;;;6.87;3.90;;;16.70;99.90;;;;;;5114176;28;20194;-75
2022/07/22 01:12:16;;;;;;;4.63;2.80;;;16.60;99.90;;;;;;5113827;28;20179;-75
2022/07/22 01:14:41;;;;;;;6.23;3.07;;;16.60;99.90;;;;;;5113854;28;20175;-75
2022/07/22 01:17:07;;;;;;;7.37;4.37;;;16.60;99.90;;;;;;5114060;28;20621;-74
2022/07/22 01:19:35;;;;;;;7.47;4.33;;;16.50;99.90;;;;;;5113686;28;20175;-75
2022/07/22 01:22:01;;;;;;;7.50;4.37;;;16.50;99.90;;;;;;5113749;28;20638;-75
2022/07/22 01:24:27;;;;;;;7.43;4.43;;;16.50;99.90;;;;;;5113798;28;20464;-75
2022/07/22 01:26:52;;;;;;;8.47;4.80;;;16.40;99.90;;;;;;5112636;28;20179;-74
2022/07/22 01:29:18;;;;;;;8.93;4.27;;;16.40;99.90;;;;;;5113520;28;20164;-74
2022/07/22 01:31:44;;;;;;;9.47;5.33;;;16.40;99.90;;;;;;5109447;28;20267;-75
2022/07/22 01:34:09;;;;;;;8.70;4.50;;;16.40;99.90;;;;;;5113349;28;20218;-75
2022/07/22 01:36:35;;;;;;;5.70;3.50;;;16.50;99.90;;;;;;5113097;28;20188;-75
2022/07/22 01:39:01;;;;;;;7.80;4.30;;;16.40;99.90;;;;;;5113497;28;20176;-75
2022/07/22 01:41:26;;;;;;;6.23;4.27;;;16.40;99.90;;;;;;5112710;28;20606;-75
2022/07/22 01:43:52;;;;;;;14.30;3.80;;;16.30;99.90;;;;;;5113481;28;20584;-75
2022/07/22 01:46:18;;;;;;;7.17;3.70;;;16.30;99.90;;;;;;5113492;28;20179;-75
2022/07/22 01:48:44;;;;;;;9.30;4.90;;;16.30;99.90;;;;;;5112601;28;20229;-75
2022/07/22 01:51:10;;;;;;;8.53;4.20;;;16.30;99.90;;;;;;5112557;28;20543;-75
2022/07/22 01:53:35;;;;;;;7.27;4.03;;;16.30;99.90;;;;;;5113060;28;20417;-74
2022/07/22 01:56:01;;;;;;;14.53;4.20;;;16.30;99.90;;;;;;5112899;28;20263;-74
2022/07/22 01:58:27;;;;;;;6.87;3.97;;;16.20;99.90;;;;;;5113274;28;20208;-75
2022/07/22 02:00:53;;;;;;;12.40;4.80;;;16.20;99.90;;;;;;5113119;28;20650;-75
2022/07/22 02:03:18;;;;;;;5.57;3.47;;;16.20;99.90;;;;;;5110741;28;20207;-75
2022/07/22 02:05:45;;;;;;;9.93;4.20;;;16.20;99.90;;;;;;5101759;28;20183;-75
2022/07/22 02:08:11;;;;;;;8.30;4.63;;;16.20;99.90;;;;;;5104406;28;20183;-75
2022/07/22 02:10:37;;;;;;;6.27;3.83;;;16.20;99.90;;;;;;5112614;28;20425;-75
2022/07/22 02:13:03;;;;;;;6.40;4.00;;;16.20;99.90;;;;;;5113016;28;20410;-75
2022/07/22 02:15:29;;;;;;;7.50;4.10;;;16.10;99.90;;;;;;5112837;28;20412;-74
2022/07/22 02:17:55;;;;;;;6.73;4.40;;;16.10;99.90;;;;;;5113009;28;20844;-74
2022/07/22 02:20:21;;;;;;;9.23;4.43;;;16.10;99.90;;;;;;5112398;28;20246;-75
2022/07/22 02:22:47;;;;;;;9.33;4.67;;;16.10;99.90;;;;;;5112673;28;20207;-75
2022/07/22 02:25:13;;;;;;;8.07;4.27;;;16.10;99.90;;;;;;5107745;28;20515;-74
2022/07/22 02:27:40;;;;;;;8.53;4.33;;;16.10;99.90;;;;;;5112295;28;20665;-75
2022/07/22 02:30:07;;;;;;;13.10;4.00;;;16.00;99.90;;;;;;5112631;28;20203;-75
2022/07/22 02:32:33;;;;;;;12.73;4.40;;;16.00;99.90;;;;;;5112918;28;20738;-75
2022/07/22 02:34:59;;;;;;;9.10;5.40;;;16.00;99.90;;;;;;5107406;28;20513;-74
2022/07/22 02:37:25;;;;;;;6.33;3.93;;;16.00;99.90;;;;;;5116314;28;20207;-75
2022/07/22 02:39:51;;;;;;;8.30;4.33;;;16.00;99.90;;;;;;5116976;28;20282;-75
2022/07/22 02:42:17;;;;;;;6.63;4.20;;;16.00;99.90;;;;;;5116952;28;20489;-75
2022/07/22 02:44:42;;;;;;;7.67;4.20;;;16.00;99.90;;;;;;5116953;28;20214;-75
2022/07/22 02:47:08;;;;;;;12.23;4.50;;;15.90;99.90;;;;;;5116846;28;20251;-74
2022/07/22 02:49:34;;;;;;;7.60;3.93;;;15.90;99.90;;;;;;5117240;28;20539;-75
2022/07/22 02:51:59;;;;;;;8.20;4.10;;;15.90;99.90;;;;;;5116692;28;20221;-75
2022/07/22 02:54:25;;;;;;;7.77;4.23;;;15.90;99.90;;;;;;5116539;28;20176;-75
2022/07/22 02:56:51;;;;;;;7.53;4.60;;;15.80;99.90;;;;;;5117281;28;20244;-75
2022/07/22 02:59:16;;;;;;;11.10;5.40;;;15.80;99.90;;;;;;5117066;28;20180;-75
2022/07/22 03:01:42;;;;;;;7.60;4.70;;;15.80;99.90;;;;;;5116833;28;20176;-75
2022/07/22 03:04:08;;;;;;;6.90;4.33;;;15.70;99.90;;;;;;5115473;28;20207;-75
2022/07/22 03:06:33;;;;;;;8.20;4.50;;;15.80;99.90;;;;;;5114542;28;20175;-75
2022/07/22 03:08:59;;;;;;;9.47;4.70;;;15.80;99.90;;;;;;5116624;27;20190;-75
2022/07/22 03:11:25;;;;;;;7.50;4.17;;;15.80;99.90;;;;;;5116615;28;20183;-75
2022/07/22 03:13:50;;;;;;;9.17;4.67;;;15.80;99.90;;;;;;5116709;28;20209;-75
2022/07/22 03:16:16;;;;;;;7.67;4.50;;;15.80;99.90;;;;;;5116928;28;20210;-75
2022/07/22 03:18:42;;;;;;;10.87;4.80;;;15.70;99.90;;;;;;5116665;28;20179;-75
2022/07/22 03:21:07;;;;;;;10.27;4.17;;;15.70;99.90;;;;;;5115834;28;20204;-75
2022/07/22 03:23:33;;;;;;;7.33;5.10;;;15.70;99.90;;;;;;5116717;28;20199;-75
2022/07/22 03:25:59;;;;;;;7.10;3.90;;;15.70;99.90;;;;;;5116895;28;20164;-74
2022/07/22 03:28:24;;;;;;;18.83;5.40;;;15.60;99.90;;;;;;5116409;28;20172;-75
2022/07/22 03:30:50;;;;;;;8.60;5.50;;;15.60;99.90;;;;;;5116432;28;20164;-75
2022/07/22 03:33:15;;;;;;;9.13;4.97;;;15.60;99.90;;;;;;5114709;28;20249;-75
2022/07/22 03:35:41;;;;;;;10.83;4.97;;;15.60;99.90;;;;;;5106682;28;20229;-75
2022/07/22 03:38:07;;;;;;;8.03;4.80;;;15.60;99.90;;;;;;5116018;28;20175;-75
2022/07/22 03:40:32;;;;;;;6.20;4.27;;;15.60;99.90;;;;;;5116318;28;20634;-75
2022/07/22 03:42:58;;;;;;;9.27;4.37;;;15.60;99.90;;;;;;5116153;28;20206;-74
2022/07/22 03:45:24;;;;;;;10.50;4.77;;;15.60;99.90;;;;;;5116141;28;20167;-75
2022/07/22 03:47:49;;;;;;;13.23;5.50;;;15.60;99.90;;;;;;5114848;28;20206;-75
2022/07/22 03:50:15;;;;;;;10.03;4.30;;;15.60;99.90;;;;;;5112290;28;20180;-75
2022/07/22 03:52:41;;;;;;;11.30;5.93;;;15.50;99.90;;;;;;5115246;28;20254;-75
2022/07/22 03:55:07;;;;;;;14.03;5.40;;;15.50;99.90;;;;;;5115355;28;20172;-75
2022/07/22 03:57:33;;;;;;;7.47;4.53;;;15.50;99.90;;;;;;5116754;28;20183;-75
2022/07/22 03:59:58;;;;;;;9.77;5.00;;;15.50;99.90;;;;;;5116780;28;20402;-75
2022/07/22 04:02:24;;;;;;;9.57;6.00;;;15.50;99.90;;;;;;5116535;28;20171;-75
2022/07/22 04:04:49;;;;;;;11.70;5.13;;;15.50;99.90;;;;;;5115732;28;20203;-75
2022/07/22 04:07:15;;;;;;;9.17;4.90;;;15.40;99.90;;;;;;5118408;28;20225;-75
2022/07/22 04:09:41;;;;;;;15.27;4.90;;;15.40;99.90;;;;;;5124101;28;20190;-75
2022/07/22 04:12:07;;;;;;;7.63;4.77;;;15.40;99.90;;;;;;5133498;28;20182;-75
2022/07/22 04:14:32;;;;;;;9.00;5.20;;;15.50;99.90;;;;;;5133076;28;20197;-75
2022/07/22 04:16:58;;;;;;;11.10;5.50;;;15.50;99.90;;;;;;5132316;28;20194;-75
2022/07/22 04:19:24;;;;;;;8.13;5.20;;;15.50;99.90;;;;;;5129084;28;20183;-75
2022/07/22 04:21:49;;;;;;;9.70;5.70;;;15.50;99.90;;;;;;5115640;28;20180;-74
2022/07/22 04:24:15;;;;;;;10.70;6.00;;;15.50;99.90;;;;;;5114684;28;20287;-75
2022/07/22 04:26:40;;;;;;;10.10;5.40;;;15.60;99.90;;;;;;5114005;28;20180;-75
2022/07/22 04:29:06;;;;;;;11.67;5.73;;;15.60;99.90;;;;;;5115012;28;20180;-75
2022/07/22 04:31:32;;;;;;;11.47;5.40;;;15.60;99.90;;;;;;5114692;28;20313;-75
2022/07/22 04:33:58;;;;;;;14.90;6.90;;;15.70;99.90;;;;;;5107729;28;20184;-75
2022/07/22 04:36:24;;;;;;;13.13;7.00;;;15.70;99.90;;;;;;5097931;28;20184;-76
2022/07/22 04:38:50;;;;;;;13.23;6.80;;;15.70;99.90;;;;;;5112107;28;20777;-75
2022/07/22 04:41:16;;;;;;;12.67;6.97;;;15.80;99.90;;;;;;5115020;28;20203;-75
2022/07/22 04:43:42;;;;;;;11.40;6.70;;;15.80;99.90;;;;;;5113649;28;20559;-76
2022/07/22 04:46:08;;;;;;;11.90;6.00;;;15.90;99.90;;;;;;5114870;28;20180;-76
2022/07/22 04:48:33;;;;;;;11.73;6.50;;;15.90;99.90;;;;;;5115223;28;20264;-76
2022/07/22 04:51:00;;;;;;;14.10;6.30;;;15.90;99.90;;;;;;5113960;28;20180;-76
2022/07/22 04:53:26;;;;;;;14.50;5.90;;;16.00;99.90;;;;;;5114618;28;20217;-76
2022/07/22 04:55:52;;;;;;;16.47;8.20;;;16.00;99.90;;;;;;5114500;28;20789;-75
2022/07/22 04:58:17;;;;;;;13.80;5.57;;;16.10;99.90;;;;;;5114956;28;20687;-75
2022/07/22 05:00:43;;;;;;;11.50;5.93;;;16.10;99.90;;;;;;5109246;28;20194;-75
2022/07/22 05:03:09;;;;;;;12.57;7.40;;;16.20;99.90;;;;;;5104291;28;20575;-76
2022/07/22 05:05:35;;;;;;;17.60;6.30;;;16.20;99.90;;;;;;5111281;28;20602;-76
2022/07/22 05:08:01;;;;;;;11.77;7.23;;;16.30;99.90;;;;;;5106648;28;20268;-76
2022/07/22 05:10:27;;;;;;;18.10;6.30;;;16.30;99.90;;;;;;5114335;28;20233;-76
2022/07/22 05:12:53;;;;;;;15.73;6.30;;;16.40;99.90;;;;;;5114174;28;20440;-77
2022/07/22 05:15:19;;;;;;;17.50;7.43;;;16.40;99.90;;;;;;5114422;28;20406;-76
2022/07/22 05:17:44;;;;;;;18.73;7.40;;;16.50;99.90;;;;;;5110581;28;20627;-76
2022/07/22 05:20:11;;;;;;;11.30;6.37;;;16.50;99.90;;;;;;5112139;28;20176;-76
2022/07/22 05:22:37;;;;;;;10.63;6.87;;;16.60;99.90;;;;;;5109130;28;20261;-76
2022/07/22 05:25:03;;;;;;;12.50;7.27;;;16.60;99.90;;;;;;5114474;28;20862;-77
2022/07/22 05:27:28;;;;;;;13.10;6.60;;;16.70;99.90;;;;;;5114208;28;20626;-75
2022/07/22 05:29:54;;;;;;;13.90;5.90;;;16.80;99.90;;;;;;5114415;28;20434;-75
2022/07/22 05:32:19;;;;;;;12.00;7.00;;;16.80;99.90;;;;;;5114252;28;20175;-76
2022/07/22 05:34:45;;;;;;;10.90;7.10;;;16.90;99.90;;;;;;5113596;28;20603;-76
2022/07/22 05:37:11;;;;;;;15.10;6.53;;;16.90;99.90;;;;;;5113749;28;20705;-76
2022/07/22 05:39:36;;;;;;;14.00;7.23;;;17.00;99.90;;;;;;5113978;28;20179;-76
2022/07/22 05:42:02;;;;;;;30.40;7.70;;;17.00;99.90;;;;;;5113390;28;20591;-76
2022/07/22 05:44:28;;;;;;;18.03;6.10;;;17.10;99.90;;;;;;5113446;28;20668;-75
2022/07/22 05:46:54;;;;;;;14.87;8.23;;;17.10;99.90;;;;;;5114055;28;20190;-76
2022/07/22 05:49:21;;;;;;;15.13;8.00;;;17.10;99.90;;;;;;5114013;28;20180;-76
2022/07/22 05:51:47;;;;;;;9.53;6.27;;;17.20;99.90;;;;;;5113066;28;20175;-74
2022/07/22 05:54:12;;;;;;;11.60;6.83;;;17.30;99.90;;;;;;5114748;28;20972;-75
2022/07/22 05:56:38;;;;;;;24.20;6.80;;;17.30;99.90;;;;;;5113361;28;20208;-74
2022/07/22 05:59:04;;;;;;;10.93;6.97;;;17.40;99.90;;;;;;5100799;28;20184;-75
2022/07/22 06:01:29;;;;;;;20.43;7.23;;;17.40;99.90;;;;;;5108847;27;20175;-75
2022/07/22 06:03:55;;;;;;;10.80;6.80;;;17.50;99.90;;;;;;5113606;28;20294;-74
2022/07/22 06:06:21;;;;;;;11.83;7.03;;;17.60;99.90;;;;;;5114028;28;20228;-75
2022/07/22 06:08:46;;;;;;;14.17;6.97;;;17.70;99.90;;;;;;5113598;28;20207;-75
2022/07/22 06:11:12;;;;;;;13.50;6.73;;;17.70;99.90;;;;;;5110812;28;20195;-75
2022/07/22 06:13:38;;;;;;;10.93;6.57;;;17.80;99.90;;;;;;5114020;28;20180;-76
2022/07/22 06:16:05;;;;;;;16.37;7.77;;;17.90;99.90;;;;;;5114240;28;20180;-75
2022/07/22 06:18:30;;;;;;;13.67;8.07;;;17.90;99.90;;;;;;5112960;28;20172;-75
2022/07/22 06:20:56;;;;;;;19.73;8.30;;;18.00;99.90;;;;;;5112770;28;20466;-74
2022/07/22 06:23:24;;;;;;;10.87;7.13;;;18.00;99.90;;;;;;5115224;28;20278;-75
2022/07/22 06:25:49;;;;;;;13.73;7.20;;;18.10;99.90;;;;;;5111395;28;20244;-75
2022/07/22 06:28:15;;;;;;;13.77;6.80;;;18.20;99.90;;;;;;5111373;28;21079;-75
2022/07/22 06:30:41;;;;;;;12.73;7.20;;;18.30;99.90;;;;;;5115035;28;20208;-76
2022/07/22 06:33:07;;;;;;;10.70;6.80;;;18.40;99.90;;;;;;5116383;28;20174;-76
2022/07/22 06:35:33;;;;;;;19.33;6.30;;;18.50;99.90;;;;;;5123188;28;20172;-75
2022/07/22 06:37:59;;;;;;;10.87;6.10;;;18.50;99.90;;;;;;5136280;28;20546;-76
2022/07/22 06:40:24;;;;;;;12.67;7.20;;;18.60;99.90;;;;;;5131998;28;20192;-76
2022/07/22 06:42:50;;;;;;;18.10;6.00;;;18.70;99.90;;;;;;5132974;28;20195;-75
2022/07/22 06:45:16;;;;;;;11.80;6.70;;;18.70;99.90;;;;;;5122946;28;20207;-77
2022/07/22 06:47:41;;;;;;;19.43;7.60;;;18.80;99.90;;;;;;5115824;28;20187;-76
2022/07/22 06:50:09;;;;;;;13.97;6.17;;;18.90;99.90;;;;;;5109789;28;20619;-76
2022/07/22 06:52:38;;;;;;;10.87;5.70;;;18.90;99.90;;;;;;5105321;28;20195;-76
2022/07/22 06:55:05;;;;;;;10.30;6.50;;;19.10;99.90;;;;;;5112374;28;20511;-77
2022/07/22 06:57:30;;;;;;;12.47;6.20;;;19.20;99.90;;;;;;5112330;28;20433;-76
2022/07/22 06:59:56;;;;;;;13.13;6.67;;;19.50;99.90;;;;;;5112515;28;20417;-76
2022/07/22 07:02:22;;;;;;;12.30;7.10;;;19.70;99.90;;;;;;5112573;28;20168;-76
2022/07/22 07:04:47;;;;;;;9.70;5.67;;;19.80;99.90;;;;;;5101945;28;20203;-76
2022/07/22 07:07:13;;;;;;;17.13;7.17;;;20.10;99.90;;;;;;5103276;28;20172;-76
2022/07/22 07:09:39;;;;;;;11.50;6.07;;;20.20;99.90;;;;;;5111997;28;20660;-76
2022/07/22 07:12:04;;;;;;;10.90;5.83;;;20.20;99.90;;;;;;5111305;28;20188;-76
2022/07/22 07:14:30;;;;;;;40.27;6.60;;;20.50;99.90;;;;;;5104736;28;20203;-76
2022/07/22 07:16:56;;;;;;;16.53;7.73;;;20.70;99.90;;;;;;5111959;28;20203;-77
2022/07/22 07:19:21;;;;;;;8.93;5.70;;;20.90;99.90;;;;;;5112378;28;20258;-76
2022/07/22 07:21:47;;;;;;;10.57;6.43;;;21.20;99.90;;;;;;5112108;28;20284;-74
2022/07/22 07:24:13;;;;;;;15.17;7.07;;;21.40;99.90;;;;;;5115943;28;20196;-75
2022/07/22 07:26:38;;;;;;;13.80;7.87;;;21.50;99.90;;;;;;5115741;28;20591;-75
2022/07/22 07:29:04;;;;;;;18.80;6.73;;;21.90;99.90;;;;;;5114993;28;20186;-76
2022/07/22 07:31:30;;;;;;;9.27;5.73;;;22.20;99.90;;;;;;5113011;28;20180;-76
2022/07/22 07:33:56;;;;;;;10.30;5.90;;;22.70;99.90;;;;;;5115721;28;20175;-75
2022/07/22 07:36:22;;;;;;;10.00;6.00;;;23.10;99.90;;;;;;5116496;28;20883;-75
2022/07/22 07:38:48;;;;;;;12.83;6.03;;;23.30;99.90;;;;;;5115783;28;20621;-75
2022/07/22 07:41:14;;;;;;;8.50;4.87;;;23.40;99.90;;;;;;5113459;28;20427;-76
2022/07/22 07:43:40;;;;;;;9.10;5.80;;;24.20;98.80;;;;;;5120362;28;20559;-76
2022/07/22 07:46:06;;;;;;;9.07;5.20;;;25.10;97.80;;;;;;5111458;28;20452;-76
2022/07/22 07:48:31;;;;;;;9.80;5.27;;;26.10;95.80;;;;;;5115059;28;20171;-76
2022/07/22 07:50:57;;;;;;;7.47;5.18;;;26.50;95.60;;;;;;5113642;28;20179;-76
2022/07/22 07:53:23;;;;;;;14.77;5.75;;;27.80;92.80;;;;;;5115364;28;20175;-76
2022/07/22 07:55:49;;;;;;;14.40;5.57;;;28.40;91.70;;;;;;5110011;28;20175;-76
2022/07/22 07:58:14;;;;;;;10.15;5.28;;;29.10;88.70;;;;;;5111506;28;20199;-76
2022/07/22 08:00:42;;;;;;;6.15;4.32;;;29.90;84.60;;;;;;5108056;28;20664;-77
2022/07/22 08:03:08;;;;;;;10.07;5.45;;;29.60;85.30;;;;;;5109945;28;20705;-77
2022/07/22 08:05:34;;;;;;;17.13;6.32;;;30.60;80.30;;;;;;5112982;28;20178;-76
2022/07/22 08:08:01;;;;;;;10.07;5.38;;;30.40;79.70;;;;;;5113694;28;20179;-77
2022/07/22 08:10:26;;;;;;;9.20;5.00;;;30.30;79.00;;;;;;5114501;28;20187;-77
2022/07/22 08:12:53;;;;;;;8.55;4.65;;;30.00;79.60;;;;;;5114139;28;20208;-77
2022/07/22 08:15:19;;;;;;;10.30;4.45;;;29.80;82.30;;;;;;5114898;28;20179;-77
2022/07/22 08:17:45;;;;;;;10.45;4.65;;;29.30;82.20;;;;;;5111207;28;20176;-77
2022/07/22 08:20:11;;;;;;;7.93;5.20;;;29.90;80.70;;;;;;5109535;28;20171;-77
2022/07/22 08:22:36;;;;;;;7.03;4.18;;;29.70;82.10;;;;;;5113100;28;20177;-77
2022/07/22 08:25:02;;;;;;;13.27;5.57;;;30.10;80.40;;;;;;5114516;28;20179;-77
2022/07/22 08:27:28;;;;;;;8.60;4.65;;;29.80;80.10;;;;;;5107902;28;20229;-77
2022/07/22 08:29:53;;;;;;;8.25;4.32;;;29.90;82.10;;;;;;5112925;28;20179;-77
2022/07/22 08:32:19;;;;;;;8.55;4.78;;;30.80;77.50;;;;;;5113390;28;20195;-77
2022/07/22 08:34:45;;;;;;;8.00;5.28;;;30.80;76.70;;;;;;5114401;28;20183;-77
2022/07/22 08:37:10;;;;;;;12.13;5.63;;;30.80;76.60;;;;;;5114200;28;20655;-77
2022/07/22 08:39:36;;;;;;;10.13;4.85;;;31.10;75.00;;;;;;5113902;28;20186;-77
2022/07/22 08:42:02;;;;;;;6.80;4.30;;;31.10;75.40;;;;;;5111514;28;20187;-77
2022/07/22 08:44:32;;;;;;;8.45;4.43;;;31.10;75.00;;;;;;5114330;28;20239;-77
2022/07/22 08:47:01;;;;;;;8.40;5.07;;;30.20;76.90;;;;;;5112471;28;20587;-77
2022/07/22 08:49:27;;;;;;;10.73;4.45;;;30.40;76.20;;;;;;5114640;28;20185;-77
2022/07/22 08:51:53;;;;;;;13.32;5.70;;;29.90;77.80;;;;;;5112317;28;20577;-77
2022/07/22 08:54:19;;;;;;;10.00;5.35;;;30.00;77.90;;;;;;5113354;28;20183;-77
2022/07/22 08:56:50;;;;;;;7.00;4.80;;;30.70;75.00;;;;;;5113933;28;20183;-77
2022/07/22 08:59:15;;;;;;;6.05;4.35;;;30.90;74.80;;;;;;5113940;28;20734;-77
2022/07/22 09:02:06;;;;;;;10.00;5.38;;;30.50;75.20;;;;;;5113987;28;20388;-77
2022/07/22 09:04:32;;;;;;;8.02;4.90;;;30.90;73.60;;;;;;5111438;28;20210;-77
2022/07/22 09:06:58;;;;;;;10.18;4.25;;;30.90;73.60;;;;;;5112100;28;20221;-77
2022/07/22 09:09:32;;;;;;;7.45;4.72;;;30.30;75.30;;;;;;5113689;28;20171;-77
2022/07/22 09:12:06;;;;;;;16.35;4.20;;;30.50;77.60;;;;;;5114420;28;20213;-77
2022/07/22 09:14:48;;;;;;;6.05;4.30;;;30.50;75.80;;;;;;5115597;28;20262;-76
2022/07/22 09:17:23;;;;;;;11.85;3.88;;;30.10;74.30;;;;;;5118753;28;20179;-77
2022/07/22 09:19:48;;;;;;;10.77;4.45;;;30.90;71.30;;;;;;5118432;28;20245;-76
2022/07/22 09:22:14;;;;;;;8.52;3.92;;;30.70;73.40;;;;;;5119360;28;20218;-77
2022/07/22 09:24:40;;;;;;;16.60;4.35;;;30.60;71.60;;;;;;5120709;28;20257;-77
2022/07/22 09:27:06;;;;;;;14.48;4.10;;;30.80;71.80;;;;;;5113088;28;20171;-77
2022/07/22 09:29:32;;;;;;;8.95;4.82;;;30.50;73.70;;;;;;5113143;28;20254;-76
2022/07/22 09:31:58;;;;;;;8.80;4.28;;;31.00;71.70;;;;;;5112765;28;20262;-77
2022/07/22 09:34:31;;;;;;;7.22;4.65;;;31.00;72.20;;;;;;5114058;28;20258;-77
2022/07/22 09:36:59;;;;;;;8.77;4.50;;;30.50;73.50;;;;;;5113521;28;20167;-77
2022/07/22 09:39:30;;;;;;;6.72;3.85;;;30.60;72.90;;;;;;5113519;28;20179;-77
2022/07/22 09:41:58;;;;;;;8.48;4.55;;;31.40;70.40;;;;;;5108569;28;20222;-77
2022/07/22 09:44:23;;;;;;;6.93;4.15;;;30.70;73.60;;;;;;5112361;27;20201;-77
2022/07/22 09:46:49;;;;;;;8.65;4.13;;;30.30;75.60;;;;;;5106312;28;20182;-77
2022/07/22 09:49:31;;;;;;;10.63;4.30;;;30.40;74.80;;;;;;5101488;28;20875;-77
2022/07/22 09:51:57;;;;;;;8.30;5.00;;;30.00;76.30;;;;;;5114444;28;20171;-76
2022/07/22 09:54:23;;;;;;;9.30;5.43;;;30.50;73.00;;;;;;5116208;28;20562;-78
2022/07/22 09:56:48;;;;;;;6.60;3.90;;;30.70;72.70;;;;;;5113321;28;20179;-78
2022/07/22 09:59:14;;;;;;;11.90;4.05;;;30.40;73.60;;;;;;5112654;28;20187;-78
2022/07/22 10:01:41;;;;;;;7.25;4.25;;;30.40;73.90;;;;;;5112646;28;20175;-78
2022/07/22 10:04:09;;;;;;;11.98;4.25;;;30.20;74.40;;;;;;5113225;28;20202;-78
2022/07/22 10:06:37;;;;;;;6.20;4.57;;;30.10;75.20;;;;;;5108909;28;20302;-78
2022/07/22 10:09:06;;;;;;;5.38;3.50;;;30.20;77.00;;;;;;5112294;28;20256;-78
2022/07/22 10:11:33;;;;;;;15.02;4.78;;;30.50;74.40;;;;;;5113365;28;20214;-78
2022/07/22 10:13:59;;;;;;;7.03;4.05;;;30.40;76.00;;;;;;5114525;28;20214;-78
2022/07/22 10:16:25;;;;;;;6.22;3.67;;;30.40;74.60;;;;;;5114925;28;20175;-78
2022/07/22 10:18:51;;;;;;;7.75;4.63;;;30.20;74.50;;;;;;5102247;28;20186;-78
2022/07/22 10:21:17;;;;;;;6.05;3.88;;;29.70;75.20;;;;;;5113074;28;20183;-76
2022/07/22 10:24:08;;;;;;;5.68;3.90;;;29.30;76.30;;;;;;5116016;28;20230;-78
2022/07/22 10:27:06;;;;;;;11.38;4.43;;;29.30;76.50;;;;;;5115516;28;20175;-77
2022/07/22 10:29:40;;;;;;;18.98;4.72;;;29.40;76.40;;;;;;5080740;28;20187;-77
2022/07/22 10:32:17;;;;;;;9.18;3.83;;;29.40;76.60;;;;;;5114429;28;20174;-77
2022/07/22 10:35:06;;;;;;;7.78;3.75;;;29.10;78.00;;;;;;5115012;28;20240;-77
2022/07/22 10:37:34;;;;;;;8.65;4.15;;;29.10;77.00;;;;;;5119155;28;20187;-77
2022/07/22 10:40:20;;;;;;;9.18;3.70;;;28.60;77.20;;;;;;5105834;28;20187;-77
2022/07/22 10:42:58;;;;;;;7.97;3.83;;;28.70;79.70;;;;;;5105933;28;20190;-76
2022/07/22 10:45:33;;;;;;;6.85;4.05;;;29.00;77.80;;;;;;5120036;28;20187;-77
2022/07/22 10:48:01;;;;;;;8.43;3.63;;;29.00;78.40;;;;;;5120274;28;20266;-76
2022/07/22 10:50:35;;;;;;;8.65;4.72;;;28.90;78.70;;;;;;5125293;28;20238;-77
2022/07/22 10:53:05;;;;;;;10.45;4.55;;;29.00;78.30;;;;;;5137685;28;20167;-76
2022/07/22 10:55:31;;;;;;;8.40;4.47;;;29.00;78.40;;;;;;5135232;28;20163;-77
2022/07/22 10:57:57;;;;;;;7.50;3.97;;;28.90;79.30;;;;;;5140858;28;20183;-77
2022/07/22 11:00:23;;;;;;;7.63;4.17;;;29.10;79.80;;;;;;5142413;28;20170;-77
2022/07/22 11:02:48;;;;;;;8.18;4.30;;;29.10;80.80;;;;;;5137810;28;20171;-77
2022/07/22 11:05:23;;;;;;;6.50;3.23;;;29.00;77.20;;;;;;5143026;28;20186;-77
2022/07/22 11:07:49;;;;;;;9.48;4.05;;;29.10;78.80;;;;;;5142937;28;20174;-77
2022/07/22 11:10:17;;;;;;;6.27;4.00;;;28.80;77.70;;;;;;5140669;28;20266;-77
2022/07/22 11:12:44;;;;;;;7.93;3.87;;;28.90;78.60;;;;;;5142648;28;20167;-76
2022/07/22 11:15:10;;;;;;;6.93;3.63;;;28.80;77.10;;;;;;5142366;28;20160;-76
2022/07/22 11:17:37;;;;;;;10.10;3.63;;;28.90;77.30;;;;;;5125594;28;20172;-76
2022/07/22 11:20:11;;;;;;;11.88;3.85;;;29.10;77.10;;;;;;5122147;28;20250;-77
2022/07/22 11:22:38;;;;;;;13.27;4.93;;;29.30;75.20;;;;;;5120629;28;20189;-77
2022/07/22 11:25:09;;;;;;;6.97;4.07;;;29.20;77.00;;;;;;5134546;28;20195;-77
2022/07/22 11:27:34;;;;;;;6.43;4.18;;;29.40;77.10;;;;;;5133585;28;20209;-76
2022/07/22 11:30:00;;;;;;;7.43;3.72;;;29.40;74.90;;;;;;5130157;28;20171;-76
2022/07/22 11:32:31;;;;;;;8.00;3.65;;;29.60;76.10;;;;;;5124773;28;20174;-77
2022/07/22 11:34:58;;;;;;;5.68;3.10;;;29.80;74.50;;;;;;5119497;28;20175;-76
2022/07/22 11:37:26;;;;;;;6.65;3.75;;;29.70;74.80;;;;;;5118330;28;20204;-76
2022/07/22 11:40:03;;;;;;;4.55;3.22;;;29.60;74.20;;;;;;5118149;28;20186;-76
2022/07/22 11:42:29;;;;;;;6.63;3.75;;;29.30;75.50;;;;;;5116682;28;20171;-76
2022/07/22 11:44:55;;;;;;;9.70;3.97;;;29.40;78.00;;;;;;5118043;28;20900;-76
2022/07/22 11:47:20;;;;;;;9.57;4.28;;;29.40;75.50;;;;;;5116614;28;20246;-77
2022/07/22 11:49:50;;;;;;;6.40;4.15;;;29.60;74.10;;;;;;5113941;28;20192;-76
2022/07/22 11:52:16;;;;;;;10.80;3.20;;;29.60;76.60;;;;;;5115308;28;20296;-76
2022/07/22 11:54:43;;;;;;;10.65;3.40;;;29.90;76.20;;;;;;5116680;28;20198;-77
2022/07/22 11:57:10;;;;;;;10.57;3.83;;;29.90;78.20;;;;;;5115071;28;20191;-76
2022/07/22 11:59:36;;;;;;;7.72;4.13;;;30.00;75.10;;;;;;5115106;28;20259;-76
2022/07/22 12:02:04;;;;;;;5.90;3.58;;;30.10;72.50;;;;;;5115148;28;20258;-77
2022/07/22 12:04:31;;;;;;;7.85;4.15;;;30.00;73.10;;;;;;5102098;28;20207;-76
2022/07/22 12:07:01;;;;;;;6.38;3.70;;;30.00;74.10;;;;;;5111027;28;20222;-77
2022/07/22 12:09:30;;;;;;;8.23;4.57;;;30.30;73.10;;;;;;5113545;27;20163;-76
2022/07/22 12:11:57;;;;;;;4.47;3.35;;;30.30;73.50;;;;;;5115552;28;20183;-76
2022/07/22 12:14:32;;;;;;;6.70;4.00;;;30.30;76.30;;;;;;5114641;28;20498;-76
2022/07/22 12:17:05;;;;;;;6.70;3.63;;;30.00;73.70;;;;;;5115397;28;20817;-77
2022/07/22 12:19:33;;;;;;;7.25;3.95;;;30.00;72.20;;;;;;5113890;28;20214;-76
2022/07/22 12:22:04;;;;;;;8.75;3.70;;;30.20;73.40;;;;;;5114326;28;20187;-76
2022/07/22 12:24:38;;;;;;;9.38;4.65;;;30.30;76.00;;;;;;5115734;28;20202;-75
2022/07/22 12:27:10;;;;;;;11.48;4.18;;;30.50;71.10;;;;;;5116067;28;20231;-76
2022/07/22 12:29:35;;;;;;;6.90;4.38;;;30.60;71.80;;;;;;5102819;28;20720;-75
2022/07/22 12:32:07;;;;;;;8.15;4.20;;;30.30;71.20;;;;;;5115392;28;20638;-76
2022/07/22 12:34:44;;;;;;;11.77;3.95;;;30.10;73.60;;;;;;5115910;28;20191;-76
2022/07/22 12:37:21;;;;;;;9.15;3.88;;;30.40;70.60;;;;;;5115587;28;20765;-76
2022/07/22 12:40:00;;;;;;;7.22;3.65;;;30.70;73.20;;;;;;5115652;28;20181;-75
2022/07/22 12:42:32;;;;;;;6.20;3.53;;;30.80;70.50;;;;;;5114223;28;20183;-77